createdAt,value
2019-01-11T00:01:46.757Z,0.83
2019-01-11T00:04:35.002Z,1.10
2019-01-11T00:07:23.171Z,2.90
2019-01-11T00:10:12.173Z,0.83
2019-01-11T00:13:00.493Z,0.70
2019-01-11T00:15:48.925Z,0.60
2019-01-11T00:18:37.158Z,1.07
2019-01-11T00:21:25.562Z,2.20
2019-01-11T00:24:13.965Z,0.63
2019-01-11T00:27:02.335Z,1.10
2019-01-11T00:29:50.826Z,0.97
2019-01-11T00:32:39.041Z,0.50
2019-01-11T00:35:28.019Z,0.80
2019-01-11T00:38:16.136Z,0.57
2019-01-11T00:41:04.354Z,0.60
2019-01-11T00:43:52.743Z,0.90
2019-01-11T00:46:41.213Z,0.60
2019-01-11T00:49:29.242Z,0.60
2019-01-11T00:52:17.590Z,0.70
2019-01-11T00:55:08.613Z,0.50
2019-01-11T00:57:57.059Z,0.60
2019-01-11T01:00:45.490Z,0.60
2019-01-11T01:03:33.701Z,0.50
2019-01-11T01:06:21.787Z,0.60
2019-01-11T01:09:10.199Z,0.53
2019-01-11T01:11:58.217Z,1.87
2019-01-11T01:14:46.343Z,0.50
2019-01-11T01:17:34.559Z,0.60
2019-01-11T01:20:23.053Z,0.90
2019-01-11T01:23:11.345Z,0.60
2019-01-11T01:25:59.996Z,0.90
2019-01-11T01:28:49.246Z,0.60
2019-01-11T01:31:37.482Z,0.50
2019-01-11T01:34:25.834Z,0.60
2019-01-11T01:37:14.146Z,0.50
2019-01-11T01:40:04.423Z,0.60
2019-01-11T01:42:52.645Z,0.50
2019-01-11T01:45:40.863Z,0.50
2019-01-11T01:48:29.031Z,0.60
2019-01-11T01:51:17.447Z,0.50
2019-01-11T01:54:06.666Z,0.63
2019-01-11T01:56:54.925Z,0.50
2019-01-11T01:59:43.477Z,0.50
2019-01-11T02:02:32.272Z,0.50
2019-01-11T02:05:20.696Z,0.47
2019-01-11T02:08:09.302Z,0.50
2019-01-11T02:10:57.442Z,1.47
2019-01-11T02:13:45.632Z,0.60
2019-01-11T02:16:34.208Z,0.70
2019-01-11T02:19:22.617Z,0.50
2019-01-11T02:21:52.856Z,1.17
2019-01-11T02:24:41.188Z,0.50
2019-01-11T02:27:29.596Z,0.50
2019-01-11T02:30:20.309Z,0.57
2019-01-11T02:33:08.677Z,0.63
2019-01-11T02:35:56.895Z,0.50
2019-01-11T02:38:44.884Z,0.50
2019-01-11T02:41:33.163Z,0.83
2019-01-11T02:44:21.394Z,0.80
2019-01-11T02:47:00.228Z,0.50
2019-01-11T02:49:48.992Z,0.93
2019-01-11T02:52:39.095Z,0.90
2019-01-11T02:55:27.524Z,0.80
2019-01-11T02:58:15.884Z,0.50
2019-01-11T03:01:04.496Z,0.50
2019-01-11T03:03:53.406Z,2.33
2019-01-11T03:06:41.506Z,0.60
2019-01-11T03:09:29.704Z,0.60
2019-01-11T03:12:17.870Z,0.60
2019-01-11T03:15:08.922Z,0.87
2019-01-11T03:17:57.073Z,0.67
2019-01-11T03:20:45.075Z,0.50
2019-01-11T03:23:33.440Z,0.70
2019-01-11T03:26:21.611Z,0.50
2019-01-11T03:29:09.965Z,2.00
2019-01-11T03:31:58.477Z,0.60
2019-01-11T03:35:04.763Z,0.60
2019-01-11T03:37:52.864Z,3.23
2019-01-11T03:40:41.330Z,0.60
2019-01-11T03:43:29.620Z,1.33
2019-01-11T03:46:17.806Z,2.20
2019-01-11T03:49:06.415Z,0.70
2019-01-11T03:51:54.868Z,2.20
2019-01-11T03:54:43.074Z,0.97
2019-01-11T03:57:31.338Z,0.90
2019-01-11T04:00:22.076Z,1.00
2019-01-11T04:03:10.461Z,1.37
2019-01-11T04:05:58.880Z,0.67
2019-01-11T04:08:47.310Z,1.00
2019-01-11T04:11:35.976Z,1.53
2019-01-11T04:14:24.419Z,1.27
2019-01-11T04:17:12.741Z,1.87
2019-01-11T04:20:02.203Z,1.37
2019-01-11T04:22:52.740Z,2.20
2019-01-11T04:25:41.286Z,1.70
2019-01-11T04:28:29.379Z,1.10
2019-01-11T04:31:17.649Z,0.93
2019-01-11T04:34:05.838Z,1.30
2019-01-11T04:36:53.919Z,1.53
2019-01-11T04:39:42.371Z,1.97
2019-01-11T04:42:30.466Z,5.10
2019-01-11T04:45:18.709Z,0.83
2019-01-11T04:48:07.171Z,1.23
2019-01-11T04:50:55.758Z,1.40
2019-01-11T04:53:43.878Z,1.90
2019-01-11T04:56:32.107Z,1.27
2019-01-11T04:59:20.495Z,1.27
2019-01-11T05:02:08.795Z,1.17
2019-01-11T05:04:57.367Z,2.03
2019-01-11T05:07:46.091Z,2.17
2019-01-11T05:10:34.209Z,1.17
2019-01-11T05:13:26.938Z,1.57
2019-01-11T05:16:14.922Z,1.03
2019-01-11T05:19:03.274Z,3.17
2019-01-11T05:21:51.204Z,2.73
2019-01-11T05:24:39.407Z,1.20
2019-01-11T05:27:27.545Z,1.57
2019-01-11T05:30:16.733Z,2.57
2019-01-11T05:33:04.970Z,1.70
2019-01-11T05:35:53.573Z,2.10
2019-01-11T05:38:41.823Z,1.70
2019-01-11T05:41:30.164Z,0.97
2019-01-11T05:44:18.449Z,1.67
2019-01-11T05:47:06.815Z,2.00
2019-01-11T05:49:55.018Z,2.30
2019-01-11T05:52:43.488Z,3.80
2019-01-11T05:55:47.998Z,3.83
2019-01-11T05:58:37.869Z,3.53
2019-01-11T06:01:26.220Z,3.90
2019-01-11T06:04:28.154Z,1.23
2019-01-11T06:07:18.792Z,2.63
2019-01-11T06:10:09.968Z,3.27
2019-01-11T06:12:58.441Z,9.30
2019-01-11T06:15:46.591Z,9.43
2019-01-11T06:18:35.409Z,2.60
2019-01-11T06:21:23.680Z,1.40
2019-01-11T06:24:12.124Z,2.07
2019-01-11T06:27:01.033Z,1.83
2019-01-11T06:29:49.213Z,3.90
2019-01-11T06:32:37.242Z,1.90
2019-01-11T06:35:25.481Z,1.20
2019-01-11T06:38:14.015Z,2.30
2019-01-11T06:41:02.501Z,2.93
2019-01-11T06:43:51.407Z,4.27
2019-01-11T06:46:39.462Z,2.30
2019-01-11T06:49:27.692Z,2.40
2019-01-11T06:52:16.083Z,2.13
2019-01-11T06:55:06.344Z,2.40
2019-01-11T06:57:54.547Z,2.83
2019-01-11T07:00:42.949Z,0.93
2019-01-11T07:03:30.873Z,2.50
2019-01-11T07:06:19.440Z,1.10
2019-01-11T07:09:09.273Z,7.90
2019-01-11T07:11:58.640Z,2.53
2019-01-11T07:14:47.343Z,1.13
2019-01-11T07:17:35.626Z,1.27
2019-01-11T07:20:24.281Z,2.33
2019-01-11T07:23:13.864Z,1.17
2019-01-11T07:26:02.391Z,1.20
2019-01-11T07:28:50.759Z,2.77
2019-01-11T07:31:38.951Z,3.00
2019-01-11T07:34:27.323Z,1.23
2019-01-11T07:37:16.567Z,2.27
2019-01-11T07:40:08.235Z,2.03
2019-01-11T07:42:56.737Z,2.07
2019-01-11T07:45:45.045Z,1.30
2019-01-11T07:48:33.477Z,4.33
2019-01-11T07:51:22.075Z,1.13
2019-01-11T07:53:51.934Z,1.90
2019-01-11T07:56:22.216Z,5.90
2019-01-11T07:58:51.942Z,4.60
2019-01-11T08:01:22.229Z,1.40
2019-01-11T08:03:55.251Z,2.43
2019-01-11T08:06:25.941Z,1.10
2019-01-11T08:08:55.730Z,2.53
2019-01-11T08:11:43.867Z,4.40
2019-01-11T08:14:32.323Z,3.00
2019-01-11T08:17:20.828Z,5.50
2019-01-11T08:20:09.757Z,2.60
2019-01-11T08:22:57.740Z,1.97
2019-01-11T08:25:46.310Z,2.40
2019-01-11T08:28:34.466Z,5.23
2019-01-11T08:31:22.915Z,9.60
2019-01-11T08:34:01.749Z,1.40
2019-01-11T08:36:50.132Z,6.87
2019-01-11T08:39:38.205Z,7.90
2019-01-11T08:42:26.732Z,6.60
2019-01-11T08:45:15.572Z,2.53
2019-01-11T08:48:04.468Z,8.47
2019-01-11T08:50:53.170Z,5.97
2019-01-11T08:53:41.325Z,6.97
2019-01-11T08:56:29.507Z,10.17
2019-01-11T08:59:17.996Z,8.63
2019-01-11T09:02:06.524Z,3.63
2019-01-11T09:04:54.787Z,3.97
2019-01-11T09:07:43.577Z,9.00
2019-01-11T09:10:33.766Z,8.60
2019-01-11T09:13:22.272Z,6.10
2019-01-11T09:16:10.704Z,8.17
2019-01-11T09:18:58.875Z,9.97
2019-01-11T09:21:47.287Z,13.87
2019-01-11T09:24:35.637Z,7.17
2019-01-11T09:27:11.094Z,6.53
2019-01-11T09:29:59.499Z,7.20
2019-01-11T09:32:47.655Z,5.80
2019-01-11T09:35:35.844Z,12.00
2019-01-11T09:38:24.506Z,5.07
2019-01-11T09:41:12.987Z,4.13
2019-01-11T09:44:01.314Z,5.17
2019-01-11T09:46:49.675Z,3.90
2019-01-11T09:49:38.423Z,3.90
2019-01-11T09:52:26.889Z,2.60
2019-01-11T09:55:16.183Z,4.20
2019-01-11T09:58:04.260Z,3.73
2019-01-11T10:00:58.994Z,5.00
2019-01-11T10:03:24.226Z,24.63
2019-01-11T10:06:00.238Z,33.83
2019-01-11T10:08:48.448Z,21.53
2019-01-11T10:11:36.607Z,19.97
2019-01-11T10:14:25.041Z,23.40
2019-01-11T10:17:13.411Z,22.37
2019-01-11T10:20:01.921Z,21.83
2019-01-11T10:22:50.281Z,25.33
2019-01-11T10:25:38.541Z,19.20
2019-01-11T10:28:26.603Z,20.27
2019-01-11T10:31:14.936Z,34.07
2019-01-11T10:34:03.118Z,18.03
2019-01-11T10:36:52.217Z,20.17
2019-01-11T10:39:40.658Z,12.80
2019-01-11T10:42:29.284Z,15.17
2019-01-11T10:45:21.739Z,18.30
2019-01-11T10:48:10.239Z,17.50
2019-01-11T10:50:58.624Z,11.07
2019-01-11T10:53:46.977Z,16.43
2019-01-11T10:56:35.413Z,13.43
2019-01-11T10:59:23.894Z,16.43
2019-01-11T11:02:12.154Z,19.40
2019-01-11T11:05:00.554Z,16.13
2019-01-11T11:07:48.983Z,13.07
2019-01-11T11:10:37.435Z,17.47
2019-01-11T11:13:25.942Z,10.53
2019-01-11T11:16:14.322Z,8.70
2019-01-11T11:19:02.613Z,8.73
2019-01-11T11:21:51.008Z,9.80
2019-01-11T11:24:39.321Z,7.63
2019-01-11T11:27:27.570Z,7.23
2019-01-11T11:30:17.897Z,9.03
2019-01-11T11:33:06.215Z,8.33
2019-01-11T11:35:54.672Z,12.93
2019-01-11T11:38:42.977Z,12.43
2019-01-11T11:41:31.554Z,15.20
2019-01-11T11:44:19.692Z,18.63
2019-01-11T11:47:07.860Z,11.30
2019-01-11T11:49:56.604Z,12.77
2019-01-11T11:52:44.964Z,6.70
2019-01-11T11:55:33.184Z,5.27
2019-01-11T11:58:21.629Z,13.70
2019-01-11T12:01:09.802Z,15.60
2019-01-11T12:03:39.553Z,13.93
2019-01-11T12:06:28.060Z,20.70
2019-01-11T12:09:16.375Z,22.17
2019-01-11T12:12:04.586Z,24.60
2019-01-11T12:14:53.322Z,35.70
2019-01-11T12:17:23.609Z,36.83
2019-01-11T12:20:20.838Z,26.73
2019-01-11T12:23:09.290Z,27.47
2019-01-11T12:25:58.055Z,21.40
2019-01-11T12:28:27.812Z,19.07
2019-01-11T12:30:57.664Z,24.80
2019-01-11T12:33:45.772Z,19.90
2019-01-11T12:36:15.420Z,24.47
2019-01-11T12:38:45.921Z,17.63
2019-01-11T14:25:13.290Z,18.03
2019-01-11T14:31:43.528Z,10.07
2019-01-11T14:34:31.488Z,14.53
2019-01-11T14:37:19.734Z,20.90
2019-01-11T14:40:13.692Z,10.33
2019-01-11T14:43:01.810Z,15.63
2019-01-11T14:45:50.067Z,16.73
2019-01-11T14:48:38.179Z,20.37
2019-01-11T14:51:26.347Z,13.77
2019-01-11T14:54:14.661Z,10.50
2019-01-11T14:57:02.683Z,21.23
2019-01-11T14:59:50.842Z,17.70
2019-01-11T15:02:39.349Z,23.93
2019-01-11T15:05:27.969Z,25.30
2019-01-11T15:08:16.212Z,13.20
2019-01-11T15:11:04.506Z,16.53
2019-01-11T15:13:52.512Z,20.13
2019-01-11T15:16:41.082Z,25.00
2019-01-11T15:19:29.365Z,19.33
2019-01-11T15:22:17.507Z,20.60
2019-01-11T15:25:08.026Z,18.70
2019-01-11T15:27:56.244Z,15.47
2019-01-11T15:30:45.525Z,10.87
2019-01-11T15:33:34.570Z,13.03
2019-01-11T15:36:23.196Z,15.40
2019-01-11T15:39:11.674Z,12.87
2019-01-11T15:42:01.028Z,11.13
2019-01-11T15:44:49.177Z,19.10
2019-01-11T15:47:37.451Z,16.40
2019-01-11T15:50:49.950Z,22.90
2019-01-11T15:53:38.112Z,42.77
2019-01-11T15:56:26.060Z,20.10
2019-01-11T15:59:14.219Z,48.10
2019-01-11T16:02:02.434Z,34.70
2019-01-11T16:04:52.274Z,25.53
2019-01-11T16:07:40.772Z,30.50
2019-01-11T16:10:29.035Z,31.20
2019-01-11T16:13:17.564Z,35.73
2019-01-11T16:16:09.351Z,31.87
2019-01-11T16:18:57.921Z,38.53
2019-01-11T16:21:46.268Z,46.27
2019-01-11T16:24:34.419Z,40.57
2019-01-11T16:27:22.657Z,19.63
2019-01-11T16:30:13.865Z,18.53
2019-01-11T16:33:02.097Z,18.07
2019-01-11T16:35:50.232Z,16.97
2019-01-11T16:38:38.395Z,15.47
2019-01-11T16:41:27.229Z,27.37
2019-01-11T16:44:15.549Z,24.87
2019-01-11T16:47:03.589Z,16.23
2019-01-11T16:49:51.893Z,15.13
2019-01-11T16:52:46.055Z,21.13
2019-01-11T16:55:30.084Z,18.03
2019-01-11T16:58:18.507Z,20.57
2019-01-11T17:01:07.012Z,17.23
2019-01-11T17:03:55.573Z,22.00
2019-01-11T17:06:44.019Z,16.57
2019-01-11T17:09:32.071Z,11.20
2019-01-11T17:12:20.141Z,16.40
2019-01-11T17:15:11.698Z,11.43
2019-01-11T17:18:00.041Z,15.50
2019-01-11T17:20:48.248Z,16.10
2019-01-11T17:23:36.600Z,15.27
2019-01-11T17:26:24.764Z,15.30
2019-01-11T17:29:13.081Z,19.73
2019-01-11T17:32:01.293Z,18.77
2019-01-11T17:34:49.720Z,14.63
2019-01-11T17:37:37.822Z,18.80
2019-01-11T17:40:25.804Z,7.73
2019-01-11T17:43:14.388Z,13.80
2019-01-11T17:46:03.051Z,16.20
2019-01-11T17:48:51.621Z,18.43
2019-01-11T17:51:39.852Z,11.57
2019-01-11T17:54:28.346Z,9.80
2019-01-11T17:57:16.453Z,19.07
2019-01-11T18:00:08.529Z,11.43
2019-01-11T18:02:56.927Z,11.90
2019-01-11T18:05:45.144Z,10.10
2019-01-11T18:08:33.187Z,11.90
2019-01-11T18:11:21.606Z,9.63
2019-01-11T18:14:09.828Z,11.87
2019-01-11T18:16:58.298Z,7.73
2019-01-11T18:19:46.598Z,10.70
2019-01-11T18:22:35.102Z,9.87
2019-01-11T18:25:23.181Z,9.90
2019-01-11T18:28:11.253Z,8.23
2019-01-11T18:30:59.845Z,12.83
2019-01-11T18:33:48.029Z,11.13
2019-01-11T18:36:36.357Z,16.17
2019-01-11T18:39:24.570Z,15.57
2019-01-11T18:42:13.470Z,15.63
2019-01-11T18:45:01.821Z,11.57
2019-01-11T18:47:49.985Z,12.70
2019-01-11T18:50:38.207Z,10.07
2019-01-11T18:53:26.288Z,7.80
2019-01-11T18:56:14.779Z,14.07
2019-01-11T18:59:03.330Z,11.77
2019-01-11T19:01:51.507Z,7.50
2019-01-11T19:04:39.766Z,10.40
2019-01-11T19:07:27.825Z,10.37
2019-01-11T19:10:18.441Z,12.20
2019-01-11T19:13:06.802Z,8.10
2019-01-11T19:15:55.251Z,8.13
2019-01-11T19:18:43.781Z,13.17
2019-01-11T19:21:32.146Z,8.03
2019-01-11T19:24:20.583Z,7.57
2019-01-11T19:27:08.940Z,5.43
2019-01-11T19:29:57.962Z,9.30
2019-01-11T19:32:46.645Z,8.57
2019-01-11T19:35:34.967Z,11.17
2019-01-11T19:38:23.210Z,10.23
2019-01-11T19:41:11.586Z,8.73
2019-01-11T19:44:00.108Z,9.57
2019-01-11T19:46:48.383Z,9.57
2019-01-11T19:49:36.742Z,7.60
2019-01-11T19:52:25.381Z,8.27
2019-01-11T19:55:13.916Z,8.20
2019-01-11T19:58:01.972Z,11.80
2019-01-11T20:00:50.794Z,6.50
2019-01-11T20:03:38.865Z,4.00
2019-01-11T20:06:27.134Z,6.97
2019-01-11T20:09:15.596Z,7.77
2019-01-11T20:12:03.839Z,8.27
2019-01-11T20:14:52.079Z,8.60
2019-01-11T20:17:40.972Z,4.07
2019-01-11T20:20:29.105Z,11.63
2019-01-11T20:23:17.312Z,7.53
2019-01-11T20:26:05.750Z,3.93
2019-01-11T20:28:54.148Z,9.13
2019-01-11T20:31:42.560Z,5.50
2019-01-11T20:34:30.812Z,5.37
2019-01-11T20:37:22.172Z,6.93
2019-01-11T20:40:13.451Z,6.70
2019-01-11T20:43:01.965Z,5.37
2019-01-11T20:45:50.505Z,10.30
2019-01-11T20:48:39.043Z,6.07
2019-01-11T20:51:27.521Z,5.23
2019-01-11T20:54:15.952Z,13.83
2019-01-11T20:57:04.278Z,16.90
2019-01-11T20:59:54.542Z,6.80
2019-01-11T21:02:43.043Z,8.70
2019-01-11T21:05:31.549Z,11.03
2019-01-11T21:08:20.099Z,13.13
2019-01-11T21:11:08.334Z,8.60
2019-01-11T21:13:56.496Z,7.50
2019-01-11T21:16:44.676Z,5.30
2019-01-11T21:19:32.835Z,13.40
2019-01-11T21:22:21.289Z,13.37
2019-01-11T21:25:12.753Z,8.60
2019-01-11T21:28:01.088Z,11.10
2019-01-11T21:30:49.300Z,5.00
2019-01-11T21:33:37.349Z,7.53
2019-01-11T21:36:44.232Z,16.27
2019-01-11T21:39:32.508Z,14.10
2019-01-11T21:42:20.732Z,7.20
2019-01-11T21:45:11.260Z,3.90
2019-01-11T21:47:59.253Z,12.87
2019-01-11T21:50:47.471Z,11.40
2019-01-11T21:53:35.743Z,8.00
2019-01-11T21:56:24.114Z,12.20
2019-01-11T21:59:12.481Z,9.90
2019-01-11T22:02:00.680Z,8.37
2019-01-11T22:04:48.845Z,8.73
2019-01-11T22:07:37.126Z,15.30
2019-01-11T22:10:26.082Z,13.43
2019-01-11T22:13:14.273Z,20.23
2019-01-11T22:16:02.406Z,7.33
2019-01-11T22:18:50.997Z,12.30
2019-01-11T22:21:39.468Z,11.30
2019-01-11T22:24:27.841Z,6.53
2019-01-11T22:27:15.992Z,8.70
2019-01-11T22:30:07.504Z,8.50
2019-01-11T22:32:55.691Z,8.67
2019-01-11T22:35:44.055Z,8.33
2019-01-11T22:38:32.380Z,7.30
2019-01-11T22:41:20.882Z,9.00
2019-01-11T22:44:09.393Z,9.53
2019-01-11T22:46:57.650Z,9.03
2019-01-11T22:49:45.892Z,9.00
2019-01-11T22:52:34.267Z,16.13
2019-01-11T22:55:22.636Z,7.10
2019-01-11T22:58:10.784Z,6.40
2019-01-11T23:01:04.663Z,14.83
2019-01-11T23:03:52.663Z,11.20
2019-01-11T23:06:43.904Z,8.40
2019-01-11T23:09:35.246Z,9.70
2019-01-11T23:12:35.661Z,12.33
2019-01-11T23:15:23.951Z,10.70
2019-01-11T23:18:12.581Z,8.87
2019-01-11T23:21:01.118Z,14.00
2019-01-11T23:23:49.311Z,14.40
2019-01-11T23:26:37.515Z,13.67
2019-01-11T23:29:25.986Z,11.10
2019-01-11T23:32:14.234Z,12.87
2019-01-11T23:35:02.582Z,14.83
2019-01-11T23:37:50.468Z,12.63
2019-01-11T23:40:38.982Z,7.83
2019-01-11T23:43:27.074Z,14.17
2019-01-11T23:46:15.797Z,5.77
2019-01-11T23:49:04.211Z,9.80
2019-01-11T23:51:52.259Z,11.13
2019-01-11T23:54:40.778Z,10.23
2019-01-11T23:57:29.088Z,9.03
